createdAt,value
2017-05-30T00:00:02.953Z,65.80
2017-05-30T00:02:33.903Z,65.80
2017-05-30T00:05:04.918Z,65.70
2017-05-30T00:07:35.780Z,65.80
2017-05-30T00:10:08.289Z,66.10
2017-05-30T00:12:40.432Z,65.90
2017-05-30T00:15:11.435Z,65.90
2017-05-30T00:20:22.599Z,65.60
2017-05-30T00:22:53.836Z,65.40
2017-05-30T00:25:24.703Z,65.30
2017-05-30T00:27:55.767Z,64.70
2017-05-30T00:30:26.637Z,64.30
2017-05-30T00:32:57.675Z,64.40
2017-05-30T00:35:28.603Z,63.80
2017-05-30T00:37:59.638Z,64.70
2017-05-30T00:40:30.637Z,66.00
2017-05-30T00:43:02.803Z,67.10
2017-05-30T00:45:33.900Z,67.70
2017-05-30T00:48:05.396Z,67.90
2017-05-30T00:50:36.422Z,68.40
2017-05-30T00:53:07.277Z,70.50
2017-05-30T00:55:38.086Z,69.20
2017-05-30T00:58:09.213Z,69.00
2017-05-30T01:00:40.162Z,68.70
2017-05-30T01:03:11.074Z,68.80
2017-05-30T01:05:42.704Z,68.70
2017-05-30T01:08:13.663Z,68.60
2017-05-30T01:10:44.671Z,68.50
2017-05-30T01:13:16.939Z,68.10
2017-05-30T01:15:47.938Z,68.20
2017-05-30T01:18:19.628Z,68.60
2017-05-30T01:20:50.611Z,68.60
2017-05-30T01:23:21.787Z,68.90
2017-05-30T01:25:52.981Z,69.30
2017-05-30T01:28:24.041Z,69.10
2017-05-30T01:30:54.539Z,69.10
2017-05-30T01:33:25.779Z,70.00
2017-05-30T01:35:55.853Z,69.90
2017-05-30T01:38:28.350Z,70.40
2017-05-30T01:40:59.417Z,71.20
2017-05-30T01:43:32.429Z,72.00
2017-05-30T01:46:03.421Z,72.50
2017-05-30T01:48:35.195Z,72.10
2017-05-30T01:51:06.593Z,72.50
2017-05-30T01:53:37.527Z,72.40
2017-05-30T01:56:08.364Z,72.40
2017-05-30T01:58:39.316Z,72.30
2017-05-30T02:01:11.746Z,72.30
2017-05-30T02:03:43.380Z,72.30
2017-05-30T02:06:14.319Z,73.40
2017-05-30T02:08:45.392Z,72.60
2017-05-30T02:11:16.717Z,74.40
2017-05-30T02:13:49.491Z,75.50
2017-05-30T02:16:21.222Z,76.40
2017-05-30T02:18:52.639Z,76.80
2017-05-30T02:21:23.675Z,76.50
2017-05-30T02:23:56.075Z,77.30
2017-05-30T02:26:26.922Z,77.80
2017-05-30T02:28:59.350Z,77.90
2017-05-30T02:31:30.993Z,77.60
2017-05-30T02:34:02.272Z,76.90
2017-05-30T02:36:33.401Z,77.90
2017-05-30T02:39:07.460Z,77.60
2017-05-30T02:41:38.921Z,78.10
2017-05-30T02:44:11.873Z,78.50
2017-05-30T02:46:42.825Z,77.20
2017-05-30T02:49:14.120Z,78.70
2017-05-30T02:51:45.127Z,79.50
2017-05-30T02:54:16.237Z,80.80
2017-05-30T02:56:47.338Z,80.70
2017-05-30T02:59:18.314Z,80.70
2017-05-30T03:01:49.987Z,81.30
2017-05-30T03:04:21.465Z,81.20
2017-05-30T03:06:52.555Z,81.20
2017-05-30T03:09:23.561Z,82.10
2017-05-30T03:13:13.759Z,81.30
2017-05-30T03:15:46.018Z,80.80
2017-05-30T03:18:16.971Z,80.40
2017-05-30T03:20:48.544Z,79.80
2017-05-30T03:23:19.692Z,79.30
2017-05-30T03:25:51.911Z,79.10
2017-05-30T03:28:22.970Z,80.10
2017-05-30T03:30:54.039Z,79.80
2017-05-30T03:33:24.950Z,80.20
2017-05-30T03:35:56.824Z,79.80
2017-05-30T03:38:27.831Z,79.20
2017-05-30T03:40:58.786Z,79.30
2017-05-30T03:43:30.622Z,79.20
2017-05-30T03:46:04.194Z,79.00
2017-05-30T03:48:35.281Z,78.90
2017-05-30T03:51:06.559Z,78.80
2017-05-30T03:53:37.596Z,78.70
2017-05-30T03:56:08.643Z,78.90
2017-05-30T03:58:39.505Z,79.10
2017-05-30T04:01:10.403Z,79.50
2017-05-30T04:03:41.280Z,79.70
2017-05-30T04:06:12.178Z,79.40
2017-05-30T04:08:43.460Z,79.00
2017-05-30T04:11:14.557Z,78.90
2017-05-30T04:13:45.464Z,79.60
2017-05-30T04:16:17.105Z,79.20
2017-05-30T04:18:48.791Z,78.20
2017-05-30T04:21:19.741Z,77.50
2017-05-30T04:23:50.763Z,76.70
2017-05-30T04:26:21.847Z,76.30
2017-05-30T04:28:52.979Z,75.90
2017-05-30T04:31:24.062Z,75.50
2017-05-30T04:33:56.974Z,75.40
2017-05-30T04:36:28.234Z,75.20
2017-05-30T04:39:00.900Z,74.50
2017-05-30T04:41:33.022Z,74.50
2017-05-30T04:44:05.470Z,74.90
2017-05-30T04:46:37.431Z,75.20
2017-05-30T04:49:10.036Z,75.60
2017-05-30T04:51:41.443Z,75.90
2017-05-30T04:54:12.574Z,76.50
2017-05-30T04:56:44.515Z,76.50
2017-05-30T04:59:15.484Z,76.40
2017-05-30T05:01:46.464Z,76.20
2017-05-30T05:04:17.373Z,76.00
2017-05-30T05:06:48.647Z,75.90
2017-05-30T05:09:19.833Z,75.70
2017-05-30T05:11:51.120Z,74.90
2017-05-30T05:14:32.051Z,74.40
2017-05-30T05:17:04.872Z,74.50
2017-05-30T05:19:37.697Z,73.90
2017-05-30T05:22:09.689Z,73.40
2017-05-30T05:24:41.137Z,74.00
2017-05-30T05:27:12.291Z,72.80
2017-05-30T05:29:44.326Z,72.00
2017-05-30T05:32:16.538Z,72.00
2017-05-30T05:34:49.603Z,72.00
2017-05-30T05:37:21.495Z,72.00
2017-05-30T05:39:52.958Z,72.10
2017-05-30T05:42:24.052Z,71.70
2017-05-30T05:44:55.657Z,70.50
2017-05-30T05:47:26.738Z,70.70
2017-05-30T05:49:57.770Z,68.20
2017-05-30T05:52:29.295Z,65.60
2017-05-30T05:55:01.601Z,67.10
2017-05-30T05:57:33.425Z,67.40
2017-05-30T06:00:04.486Z,67.30
2017-05-30T06:02:35.585Z,65.00
2017-05-30T06:05:06.710Z,64.20
2017-05-30T06:07:37.880Z,62.50
2017-05-30T06:10:08.909Z,62.40
2017-05-30T06:12:41.184Z,63.60
2017-05-30T06:15:12.271Z,63.90
2017-05-30T06:17:44.140Z,63.00
2017-05-30T06:20:15.423Z,62.30
2017-05-30T06:22:46.925Z,62.50
2017-05-30T06:25:17.954Z,62.50
2017-05-30T06:27:49.171Z,62.40
2017-05-30T06:30:20.775Z,62.50
2017-05-30T06:32:53.345Z,62.30
2017-05-30T06:35:26.075Z,63.00
2017-05-30T06:37:57.507Z,62.20
2017-05-30T06:40:28.482Z,62.10
2017-05-30T06:42:59.555Z,62.20
2017-05-30T06:45:30.657Z,62.40
2017-05-30T06:48:02.304Z,62.30
2017-05-30T06:50:34.437Z,62.30
2017-05-30T06:53:06.878Z,62.30
2017-05-30T06:55:38.393Z,62.40
2017-05-30T06:58:10.815Z,61.80
2017-05-30T07:00:41.826Z,62.60
2017-05-30T07:03:12.955Z,61.40
2017-05-30T07:05:43.916Z,61.70
2017-05-30T07:08:14.874Z,60.70
2017-05-30T07:10:45.933Z,61.40
2017-05-30T07:13:16.999Z,62.30
2017-05-30T07:15:47.931Z,60.80
2017-05-30T07:18:19.545Z,62.10
2017-05-30T07:20:50.518Z,60.90
2017-05-30T07:23:21.922Z,58.70
2017-05-30T07:25:52.887Z,59.60
2017-05-30T07:28:23.887Z,59.50
2017-05-30T07:30:54.308Z,59.40
2017-05-30T07:33:25.408Z,58.60
2017-05-30T07:35:57.405Z,59.30
2017-05-30T07:38:28.571Z,58.10
2017-05-30T07:41:00.518Z,57.30
2017-05-30T07:43:31.711Z,58.60
2017-05-30T07:46:02.887Z,58.40
2017-05-30T07:48:34.216Z,58.60
2017-05-30T07:51:05.405Z,58.60
2017-05-30T07:53:36.847Z,59.60
2017-05-30T07:56:08.028Z,59.70
2017-05-30T07:58:41.242Z,60.30
2017-05-30T08:01:12.325Z,58.30
2017-05-30T08:03:43.388Z,56.70
2017-05-30T08:06:14.428Z,54.70
2017-05-30T08:08:45.521Z,54.70
2017-05-30T08:11:16.514Z,54.40
2017-05-30T08:13:46.885Z,54.40
2017-05-30T08:16:17.083Z,54.40
2017-05-30T08:18:47.249Z,54.80
2017-05-30T08:21:18.216Z,53.40
2017-05-30T08:23:49.475Z,55.10
2017-05-30T08:26:20.624Z,54.40
2017-05-30T08:28:51.720Z,52.80
2017-05-30T08:31:22.659Z,52.60
2017-05-30T08:33:53.761Z,50.90
2017-05-30T08:36:26.170Z,52.40
2017-05-30T08:38:59.184Z,51.80
2017-05-30T08:41:30.300Z,50.10
2017-05-30T08:44:01.385Z,49.30
2017-05-30T08:46:31.932Z,49.20
2017-05-30T08:49:05.736Z,50.20
2017-05-30T08:51:38.440Z,51.20
2017-05-30T08:54:10.533Z,51.50
2017-05-30T08:56:41.572Z,51.30
2017-05-30T08:59:12.653Z,52.30
2017-05-30T09:01:44.454Z,50.70
2017-05-30T09:04:15.774Z,49.00
2017-05-30T09:06:46.954Z,49.60
2017-05-30T09:09:18.115Z,50.90
2017-05-30T09:11:49.172Z,50.80
2017-05-30T09:14:20.347Z,51.60
2017-05-30T09:16:51.331Z,50.10
2017-05-30T09:19:24.180Z,48.80
2017-05-30T09:21:55.800Z,49.50
2017-05-30T09:24:27.293Z,48.40
2017-05-30T09:26:58.373Z,47.00
2017-05-30T09:29:29.372Z,46.80
2017-05-30T09:32:00.595Z,47.90
2017-05-30T09:34:32.043Z,49.50
2017-05-30T09:37:03.822Z,49.40
2017-05-30T09:39:34.915Z,50.10
2017-05-30T09:42:06.481Z,49.80
2017-05-30T09:44:39.073Z,49.40
2017-05-30T09:47:10.221Z,49.70
2017-05-30T09:49:43.201Z,51.20
2017-05-30T09:52:14.430Z,51.60
2017-05-30T09:54:46.064Z,53.00
2017-05-30T09:57:17.102Z,52.10
2017-05-30T09:59:48.693Z,51.70
2017-05-30T10:02:21.421Z,51.30
2017-05-30T10:05:56.076Z,48.70
2017-05-30T10:08:27.653Z,48.50
2017-05-30T10:10:59.162Z,47.30
2017-05-30T10:13:30.607Z,47.30
2017-05-30T10:16:01.721Z,45.80
2017-05-30T10:18:33.354Z,48.10
2017-05-30T10:21:06.836Z,49.50
2017-05-30T10:23:37.861Z,51.00
2017-05-30T10:26:08.966Z,51.50
2017-05-30T10:28:41.184Z,52.00
2017-05-30T10:31:12.529Z,51.40
2017-05-30T10:33:43.806Z,50.30
2017-05-30T10:36:14.709Z,50.20
2017-05-30T10:38:46.880Z,47.20
2017-05-30T10:41:18.044Z,45.10
2017-05-30T10:43:49.156Z,44.50
2017-05-30T10:46:20.489Z,44.40
2017-05-30T10:48:52.049Z,42.70
2017-05-30T10:51:24.525Z,41.60
2017-05-30T10:53:59.749Z,42.70
2017-05-30T10:56:32.064Z,45.00
2017-05-30T10:59:03.269Z,46.40
2017-05-30T11:01:34.877Z,46.80
2017-05-30T11:04:08.335Z,46.70
2017-05-30T11:06:41.288Z,46.90
2017-05-30T11:09:12.769Z,45.00
2017-05-30T11:11:43.919Z,44.50
2017-05-30T11:14:16.366Z,45.00
2017-05-30T11:16:48.415Z,46.90
2017-05-30T11:19:19.766Z,51.70
2017-05-30T11:21:51.282Z,52.50
2017-05-30T11:24:24.091Z,55.90
2017-05-30T11:26:58.444Z,55.60
2017-05-30T11:29:31.372Z,59.20
2017-05-30T11:32:02.569Z,60.20
2017-05-30T11:34:33.832Z,58.50
2017-05-30T11:37:04.967Z,56.60
2017-05-30T11:39:36.066Z,56.10
2017-05-30T11:42:07.224Z,54.70
2017-05-30T11:44:38.245Z,52.80
2017-05-30T11:47:09.528Z,48.20
2017-05-30T11:49:42.396Z,46.80
2017-05-30T11:52:14.533Z,45.10
2017-05-30T11:54:46.617Z,45.90
2017-05-30T11:57:17.977Z,47.00
2017-05-30T11:59:49.409Z,48.90
2017-05-30T12:02:20.568Z,49.10
2017-05-30T12:04:51.769Z,48.50
2017-05-30T12:07:23.622Z,48.40
2017-05-30T12:09:54.656Z,49.80
2017-05-30T12:12:26.458Z,50.60
2017-05-30T12:14:57.913Z,50.30
2017-05-30T12:17:29.065Z,48.90
2017-05-30T12:20:00.269Z,48.90
2017-05-30T12:22:31.461Z,49.90
2017-05-30T12:25:02.649Z,47.50
2017-05-30T12:27:34.132Z,45.80
2017-05-30T12:30:06.264Z,44.90
2017-05-30T12:32:38.266Z,46.80
2017-05-30T12:35:10.589Z,48.10
2017-05-30T12:37:41.719Z,50.20
2017-05-30T12:40:12.605Z,49.90
2017-05-30T12:42:43.529Z,51.20
2017-05-30T12:45:14.986Z,52.60
2017-05-30T12:47:46.119Z,53.80
2017-05-30T12:50:17.413Z,54.80
2017-05-30T12:52:49.142Z,54.70
2017-05-30T12:55:20.632Z,54.80
2017-05-30T12:57:51.910Z,55.20
2017-05-30T13:00:23.688Z,55.70
2017-05-30T13:02:55.402Z,55.50
2017-05-30T13:05:27.449Z,54.80
2017-05-30T13:07:58.547Z,55.00
2017-05-30T13:10:29.648Z,55.00
2017-05-30T13:13:01.167Z,55.10
2017-05-30T13:15:32.123Z,55.20
2017-05-30T13:18:04.576Z,55.00
2017-05-30T13:20:37.289Z,54.50
2017-05-30T13:24:28.300Z,53.80
2017-05-30T13:26:59.386Z,54.60
2017-05-30T13:29:30.988Z,55.00
2017-05-30T13:32:02.550Z,56.10
2017-05-30T13:34:33.885Z,57.00
2017-05-30T13:37:05.717Z,57.60
2017-05-30T13:39:37.289Z,57.40
2017-05-30T13:42:08.435Z,56.70
2017-05-30T13:44:39.728Z,56.60
2017-05-30T13:47:10.787Z,57.10
2017-05-30T13:49:42.028Z,57.30
2017-05-30T13:52:13.186Z,58.90
2017-05-30T13:54:45.612Z,59.60
2017-05-30T13:57:17.554Z,60.90
2017-05-30T13:59:49.749Z,61.00
2017-05-30T14:03:25.701Z,61.60
2017-05-30T14:05:57.491Z,61.20
2017-05-30T14:08:28.984Z,60.30
2017-05-30T14:11:04.600Z,60.70
2017-05-30T14:13:37.104Z,61.40
2017-05-30T14:16:08.643Z,61.30
2017-05-30T14:18:40.182Z,59.60
2017-05-30T14:21:12.578Z,57.00
2017-05-30T14:23:44.622Z,55.70
2017-05-30T14:26:18.246Z,54.60
2017-05-30T14:28:49.258Z,54.90
2017-05-30T14:31:20.443Z,55.00
2017-05-30T14:34:00.069Z,52.70
2017-05-30T14:36:31.151Z,51.70
2017-05-30T14:39:02.259Z,49.70
2017-05-30T14:41:35.873Z,48.40
2017-05-30T14:44:08.409Z,46.90
2017-05-30T14:46:39.443Z,44.40
2017-05-30T14:49:10.904Z,42.70
2017-05-30T14:51:42.164Z,43.30
2017-05-30T14:57:02.248Z,46.50
2017-05-30T14:59:34.388Z,45.00
2017-05-30T15:02:06.993Z,46.30
2017-05-30T15:04:37.777Z,46.30
2017-05-30T15:07:10.707Z,45.10
2017-05-30T15:09:41.835Z,45.30
2017-05-30T15:12:13.643Z,46.20
2017-05-30T15:14:46.842Z,45.10
2017-05-30T15:17:20.927Z,45.70
2017-05-30T15:19:56.029Z,47.40
2017-05-30T15:22:27.146Z,48.20
2017-05-30T15:24:58.214Z,48.90
2017-05-30T15:27:29.774Z,49.20
2017-05-30T15:30:00.863Z,48.80
2017-05-30T15:32:32.805Z,43.60
2017-05-30T15:35:03.819Z,41.90
2017-05-30T15:37:34.880Z,41.50
2017-05-30T15:40:05.926Z,41.60
2017-05-30T15:42:37.185Z,43.00
2017-05-30T15:45:08.616Z,42.00
2017-05-30T15:47:39.640Z,41.70
2017-05-30T15:50:11.042Z,42.20
2017-05-30T15:52:42.519Z,39.60
2017-05-30T15:55:13.835Z,39.10
2017-05-30T15:57:45.218Z,40.40
2017-05-30T16:00:16.236Z,39.90
2017-05-30T16:02:47.660Z,38.80
2017-05-30T16:05:18.664Z,39.30
2017-05-30T16:07:49.795Z,39.50
2017-05-30T16:10:20.886Z,40.70
2017-05-30T16:12:52.111Z,40.80
2017-05-30T16:15:23.989Z,40.90
2017-05-30T16:17:56.466Z,40.40
2017-05-30T16:20:27.368Z,39.10
2017-05-30T16:22:58.511Z,42.00
2017-05-30T16:25:29.516Z,43.50
2017-05-30T16:28:01.431Z,45.40
2017-05-30T16:30:32.521Z,45.60
2017-05-30T16:33:05.676Z,43.30
2017-05-30T16:35:36.772Z,41.60
2017-05-30T16:38:07.899Z,42.00
2017-05-30T16:40:39.378Z,41.10
2017-05-30T16:43:16.259Z,41.50
2017-05-30T16:48:28.726Z,44.40
2017-05-30T16:51:00.982Z,45.70
2017-05-30T16:53:32.363Z,45.60
2017-05-30T16:56:04.063Z,45.70
2017-05-30T16:58:35.149Z,44.50
2017-05-30T17:01:11.235Z,43.80
2017-05-30T17:06:40.163Z,43.70
2017-05-30T17:09:18.303Z,41.40
2017-05-30T17:11:49.224Z,40.90
2017-05-30T17:14:20.627Z,39.80
2017-05-30T17:16:51.495Z,40.40
2017-05-30T17:19:22.562Z,40.20
2017-05-30T17:21:53.613Z,39.00
2017-05-30T17:24:25.265Z,39.80
2017-05-30T17:26:56.341Z,42.30
2017-05-30T17:29:27.713Z,44.20
2017-05-30T17:31:58.683Z,45.60
2017-05-30T17:34:30.547Z,47.40
2017-05-30T17:37:01.522Z,48.00
2017-05-30T17:39:34.148Z,48.60
2017-05-30T17:43:23.964Z,49.00
2017-05-30T17:45:55.027Z,50.80
2017-05-30T17:48:26.430Z,50.30
2017-05-30T17:50:57.773Z,50.80
2017-05-30T17:53:28.746Z,50.50
2017-05-30T17:55:59.850Z,50.50
2017-05-30T17:58:31.386Z,50.30
2017-05-30T18:01:02.729Z,50.10
2017-05-30T18:03:34.139Z,50.00
2017-05-30T18:06:05.567Z,50.00
2017-05-30T18:08:36.484Z,50.10
2017-05-30T18:11:07.584Z,50.50
2017-05-30T18:13:39.837Z,51.40
2017-05-30T18:16:10.896Z,53.20
2017-05-30T18:18:42.445Z,52.50
2017-05-30T18:21:14.375Z,52.90
2017-05-30T18:23:46.231Z,53.30
2017-05-30T18:26:18.439Z,53.70
2017-05-30T18:28:49.626Z,54.40
2017-05-30T18:31:20.745Z,54.70
2017-05-30T18:33:51.765Z,55.10
2017-05-30T18:36:23.513Z,55.40
2017-05-30T18:38:57.184Z,56.30
2017-05-30T18:41:28.202Z,56.50
2017-05-30T18:44:00.781Z,56.80
2017-05-30T18:46:31.754Z,56.70
2017-05-30T18:49:02.763Z,57.10
2017-05-30T18:51:33.933Z,57.30
2017-05-30T18:54:06.962Z,58.00
2017-05-30T18:56:38.006Z,57.90
2017-05-30T18:59:10.251Z,57.90
2017-05-30T19:01:41.493Z,57.70
2017-05-30T19:04:12.597Z,58.50
2017-05-30T19:06:43.820Z,58.40
2017-05-30T19:09:14.841Z,58.30
2017-05-30T19:11:45.934Z,58.60
2017-05-30T19:14:17.971Z,58.60
2017-05-30T19:16:48.983Z,58.50
2017-05-30T19:19:19.885Z,58.70
2017-05-30T19:21:51.014Z,58.70
2017-05-30T19:24:22.059Z,58.00
2017-05-30T19:26:53.026Z,57.70
2017-05-30T19:29:24.038Z,57.70
2017-05-30T19:31:57.719Z,57.10
2017-05-30T19:34:29.782Z,57.40
2017-05-30T19:37:00.960Z,57.60
2017-05-30T19:39:31.930Z,57.60
2017-05-30T19:42:02.963Z,57.70
2017-05-30T19:44:33.896Z,57.90
2017-05-30T19:47:04.913Z,58.10
2017-05-30T19:49:35.976Z,58.40
2017-05-30T19:52:06.957Z,58.30
2017-05-30T19:54:38.000Z,58.60
2017-05-30T19:57:08.903Z,59.00
2017-05-30T19:59:39.854Z,59.40
2017-05-30T20:02:11.567Z,59.00
2017-05-30T20:04:43.318Z,59.20
2017-05-30T20:07:14.630Z,59.30
2017-05-30T20:09:45.659Z,59.10
2017-05-30T20:12:16.658Z,58.60
2017-05-30T20:14:47.578Z,58.20
2017-05-30T20:17:19.450Z,58.50
2017-05-30T20:19:51.588Z,58.20
2017-05-30T20:22:24.575Z,58.00
2017-05-30T20:24:55.597Z,57.80
2017-05-30T20:27:30.925Z,57.70
2017-05-30T20:30:01.976Z,58.00
2017-05-30T20:32:33.576Z,57.90
2017-05-30T20:35:06.258Z,57.80
2017-05-30T20:37:37.597Z,57.70
2017-05-30T20:40:08.576Z,57.80
2017-05-30T20:42:40.457Z,57.60
2017-05-30T20:45:11.341Z,57.20
2017-05-30T20:47:42.701Z,57.70
2017-05-30T20:50:16.156Z,57.80
2017-05-30T20:52:51.579Z,57.90
2017-05-30T20:55:22.455Z,57.50
2017-05-30T20:57:53.562Z,57.70
2017-05-30T21:00:24.684Z,57.70
2017-05-30T21:02:56.352Z,57.60
2017-05-30T21:05:28.424Z,57.40
2017-05-30T21:08:00.453Z,57.60
2017-05-30T21:10:31.167Z,57.60
2017-05-30T21:13:01.550Z,57.30
2017-05-30T21:15:32.510Z,57.90
2017-05-30T21:18:03.974Z,58.60
2017-05-30T21:20:36.020Z,58.00
2017-05-30T21:23:14.384Z,57.60
2017-05-30T21:25:47.987Z,58.00
2017-05-30T21:28:19.129Z,58.30
2017-05-30T21:30:51.789Z,58.20
2017-05-30T21:33:23.557Z,58.10
2017-05-30T21:35:54.583Z,58.20
2017-05-30T21:38:27.996Z,58.10
2017-05-30T21:40:59.925Z,58.00
2017-05-30T21:43:32.164Z,57.70
2017-05-30T21:46:03.115Z,57.10
2017-05-30T21:48:34.082Z,56.70
2017-05-30T21:51:05.144Z,56.30
2017-05-30T21:53:36.881Z,56.60
2017-05-30T21:56:07.827Z,56.40
2017-05-30T21:58:38.216Z,56.40
2017-05-30T22:01:09.156Z,55.80
2017-05-30T22:03:40.612Z,55.80
2017-05-30T22:06:11.636Z,53.80
2017-05-30T22:08:42.083Z,53.80
2017-05-30T22:11:12.885Z,53.20
2017-05-30T22:13:43.839Z,53.00
2017-05-30T22:16:15.372Z,52.90
2017-05-30T22:18:46.279Z,53.50
2017-05-30T22:21:17.214Z,53.10
2017-05-30T22:23:48.105Z,53.40
2017-05-30T22:26:19.125Z,53.40
2017-05-30T22:28:49.991Z,53.70
2017-05-30T22:31:22.139Z,53.50
2017-05-30T22:33:58.222Z,53.90
2017-05-30T22:36:29.202Z,54.00
2017-05-30T22:39:00.941Z,54.40
2017-05-30T22:41:32.001Z,54.60
2017-05-30T22:44:03.069Z,54.80
2017-05-30T22:46:34.803Z,54.80
2017-05-30T22:49:07.542Z,54.80
2017-05-30T22:51:38.574Z,55.70
2017-05-30T22:54:10.133Z,55.20
2017-05-30T22:56:41.159Z,55.30
2017-05-30T22:59:12.112Z,55.40
2017-05-30T23:01:43.050Z,55.70
2017-05-30T23:06:43.205Z,55.70
2017-05-30T23:09:14.938Z,56.60
2017-05-30T23:11:45.186Z,55.90
2017-05-30T23:14:16.263Z,56.30
2017-05-30T23:16:46.770Z,56.20
2017-05-30T23:19:16.911Z,57.10
2017-05-30T23:21:47.874Z,57.60
2017-05-30T23:24:18.069Z,57.60
2017-05-30T23:26:48.572Z,57.50
2017-05-30T23:29:18.719Z,57.50
2017-05-30T23:31:48.862Z,57.50
2017-05-30T23:34:19.065Z,58.30
2017-05-30T23:36:49.713Z,58.20
2017-05-30T23:39:19.896Z,58.70
2017-05-30T23:41:50.250Z,59.00
2017-05-30T23:44:20.467Z,59.20
2017-05-30T23:46:50.694Z,59.30
2017-05-30T23:49:22.315Z,59.80
2017-05-30T23:51:53.330Z,59.90
2017-05-30T23:54:23.582Z,60.00
2017-05-30T23:56:53.688Z,60.00
2017-05-30T23:59:23.910Z,60.20
